| time (UTC) | temp C | wind direction | speed KPH | gust KPH | rain 1hr cm | rain 24hr cm | rain mn cm | humidity % | barometer mb |
| 20260504034601 | 16 | 169 | 4.8 | 17.7 | 0.00 | 0.00 | 0.00 | 54 | 1006.2 |
| 20260504033100 | 16 | 227 | 9.7 | 17.7 | 0.00 | 0.00 | 0.00 | 54 | 1006.4 |
| 20260504031556 | 16 | 101 | 9.7 | 16.1 | 0.00 | 0.00 | 0.00 | 53 | 1006.4 |
| 20260504030054 | 17 | 221 | 8.0 | 19.3 | 0.00 | 0.00 | 0.00 | 52 | 1006.6 |
| 20260504024602 | 17 | 245 | 9.7 | 17.7 | 0.00 | 0.00 | 0.00 | 52 | 1006.6 |
| 20260504023057 | 17 | 198 | 11.3 | 20.9 | 0.00 | 0.00 | 0.00 | 51 | 1006.5 |
| 20260504021553 | 17 | 249 | 11.3 | 22.5 | 0.00 | 0.00 | 0.00 | 50 | 1006.4 |
| 20260504020107 | 17 | 238 | 12.9 | 22.5 | 0.00 | 0.00 | 0.00 | 49 | 1006.3 |
| 20260504014553 | 18 | 263 | 12.9 | 27.4 | 0.00 | 0.00 | 0.00 | 49 | 1006.1 |
| 20260504013049 | 18 | 217 | 12.9 | 27.4 | 0.00 | 0.00 | 0.00 | 48 | 1005.9 |
| 20260504011552 | 18 | 118 | 14.5 | 27.4 | 0.00 | 0.00 | 0.00 | 47 | 1005.7 |
| 20260504010054 | 18 | 267 | 9.7 | 24.1 | 0.00 | 0.00 | 0.00 | 46 | 1005.7 |
| 20260504004552 | 19 | 169 | 9.7 | 22.5 | 0.00 | 0.00 | 0.00 | 44 | 1005.8 |
| 20260504003055 | 20 | 225 | 14.5 | 30.6 | 0.00 | 0.00 | 0.00 | 42 | 1005.7 |
| 20260504001555 | 20 | 252 | 22.5 | 33.8 | 0.00 | 0.00 | 0.00 | 41 | 1005.7 |
| 20260504000054 | 20 | 244 | 22.5 | 33.8 | 0.00 | 0.00 | 0.00 | 41 | 1005.7 |
| 20260503234624 | 20 | 240 | 24.1 | 45.1 | 0.00 | 0.00 | 0.00 | 41 | 1005.7 |
| 20260503233056 | 20 | 236 | 19.3 | 33.8 | 0.00 | 0.00 | 0.00 | 41 | 1005.8 |
| 20260503231555 | 20 | 238 | 14.5 | 33.8 | 0.00 | 0.00 | 0.00 | 40 | 1005.9 |
| 20260503230055 | 20 | 226 | 14.5 | 32.2 | 0.00 | 0.00 | 0.00 | 40 | 1006.0 |
| 20260503224552 | 20 | 225 | 17.7 | 41.8 | 0.00 | 0.00 | 0.00 | 40 | 1006.2 |
| 20260503223057 | 19 | 105 | 17.7 | 33.8 | 0.00 | 0.00 | 0.00 | 40 | 1006.5 |
| 20260503221600 | 19 | 219 | 11.3 | 35.4 | 0.00 | 0.00 | 0.00 | 40 | 1006.7 |
| 20260503220057 | 18 | 217 | 20.9 | 43.5 | 0.00 | 0.00 | 0.00 | 41 | 1006.9 |
| 20260503214554 | 18 | 301 | 20.9 | 56.3 | 0.00 | 0.00 | 0.00 | 41 | 1007.0 |
| 20260503213054 | 18 | 282 | 16.1 | 40.2 | 0.00 | 0.00 | 0.00 | 40 | 1007.1 |
| 20260503211559 | 18 | 217 | 22.5 | 51.5 | 0.00 | 0.00 | 0.00 | 39 | 1007.4 |
| 20260503210053 | 18 | 164 | 20.9 | 57.9 | 0.00 | 0.00 | 0.00 | 39 | 1007.6 |
| 20260503204557 | 18 | 224 | 24.1 | 48.3 | 0.00 | 0.00 | 0.00 | 37 | 1008.1 |
| 20260503203058 | 18 | 342 | 24.1 | 51.5 | 0.00 | 0.00 | 0.00 | 39 | 1008.3 |
| 20260503201555 | 17 | 167 | 27.4 | 54.7 | 0.00 | 0.00 | 0.00 | 41 | 1008.5 |
| 20260503200055 | 17 | 299 | 16.1 | 43.5 | 0.00 | 0.00 | 0.00 | 43 | 1008.9 |
| 20260503194558 | 16 | 180 | 14.5 | 45.1 | 0.00 | 0.00 | 0.00 | 47 | 1009.0 |
| 20260503193053 | 16 | 263 | 16.1 | 37.0 | 0.00 | 0.00 | 0.00 | 49 | 1009.1 |
| 20260503191554 | 15 | 112 | 16.1 | 35.4 | 0.00 | 0.00 | 0.00 | 50 | 1009.2 |
| 20260503190056 | 14 | 116 | 22.5 | 40.2 | 0.00 | 0.00 | 0.00 | 51 | 1009.4 |
| 20260503184552 | 13 | 48 | 16.1 | 32.2 | 0.00 | 0.00 | 0.00 | 52 | 1009.7 |
| 20260503183051 | 12 | 179 | 14.5 | 27.4 | 0.00 | 0.00 | 0.00 | 56 | 1010.0 |
| 20260503181553 | 12 | 5 | 11.3 | 33.8 | 0.00 | 0.00 | 0.00 | 58 | 1010.3 |
| 20260503180059 | 12 | 256 | 17.7 | 40.2 | 0.00 | 0.00 | 0.00 | 58 | 1011.1 |
| 20260503174601 | 12 | 351 | 20.9 | 38.6 | 0.00 | 0.00 | 0.00 | 59 | 1011.7 |
| 20260503173104 | 12 | 19 | 12.9 | 38.6 | 0.00 | 0.00 | 0.00 | 61 | 1012.1 |
| 20260503171555 | 12 | 263 | 19.3 | 37.0 | 0.00 | 0.00 | 0.00 | 61 | 1012.4 |
| 20260503140110 | 10 | 242 | 14.5 | 38.6 | 0.00 | 0.00 | 0.00 | 55 | 1014.1 |
| 20260503110110 | 8 | 257 | 9.7 | 25.7 | 0.00 | 0.00 | 0.00 | 56 | 1014.1 |
| 20260503081553 | 8 | 221 | 11.3 | 25.7 | 0.00 | 0.00 | 0.00 | 50 | 1014.7 |
| 20260503071612 | 8 | 219 | 9.7 | 19.3 | 0.00 | 0.00 | 0.00 | 49 | 1015.0 |
| 20260503060110 | 9 | 223 | 14.5 | 25.7 | 0.00 | 0.00 | 0.00 | 46 | 1015.6 |
| 20260503054600 | 9 | 254 | 9.7 | 19.3 | 0.00 | 0.00 | 0.00 | 47 | 1015.7 |
| 20260503053051 | 9 | 219 | 6.4 | 16.1 | 0.00 | 0.00 | 0.00 | 47 | 1015.8 |
| 20260503051552 | 10 | 266 | 6.4 | 17.7 | 0.00 | 0.00 | 0.00 | 46 | 1015.9 |
| 20260503050054 | 10 | 199 | 12.9 | 25.7 | 0.00 | 0.00 | 0.00 | 45 | 1016.1 |
| 20260503044552 | 10 | 38 | 8.0 | 22.5 | 0.00 | 0.00 | 0.00 | 45 | 1016.1 |
| 20260503043052 | 10 | 216 | 9.7 | 24.1 | 0.00 | 0.00 | 0.00 | 45 | 1016.1 |
| 20260503041553 | 10 | 223 | 9.7 | 22.5 | 0.00 | 0.00 | 0.00 | 45 | 1016.3 |
| 20260503040113 | 10 | 250 | 9.7 | 22.5 | 0.00 | 0.00 | 0.00 | 45 | 1016.2 |